Antrim, New Hampshire
Current Conditions -  °F | °C
As of 5:52 AM on Saturday 22 Nov 2014 (Local Time) from KAFN Reporting Station
Clear Clear  
Wind Chill: 11°   Ceiling: Unl
Heat Index: 20°   Visibility: 10mi
Dew Point: 10°   Wind: 7mph
Humidity: 65%   Direction: 230°SW
Pressure: 30.33"   Gusts: NA
Location:  43.03°N, 71.95°W
Report Text: KAFN 221052Z AUTO 23006KT 10SM CLR M07/M12 A3033 RMK AO2 SLP294 T10671122
Loading
Personal Weather Stations






























Interactive Weather Map New forecast layout! Learn more

10-Day Weather Forecast

Advertisements
Track Severe Weather on mobile